Stations météo

réclame
Mon MeteoGroup
Villardeciervos, Espagne (8125): Température de l'air & dewpoint: 01.08.2020 22:00:00 - 07.08.2020 22:00:00 (CEST)Villardeciervos, Espagne (8125): Vitesse du vent & gusts: 01.08.2020 22:00:00 - 07.08.2020 22:00:00 (CEST)Villardeciervos, Espagne (8125): Direction du vent: 01.08.2020 22:00:00 - 07.08.2020 22:00:00 (CEST)Villardeciervos, Espagne (8125): visibility: 01.08.2020 22:00:00 - 07.08.2020 22:00:00 (CEST)Villardeciervos, Espagne (8125): Ensoleillement: 01.08.2020 22:00:00 - 07.08.2020 22:00:00 (CEST)Villardeciervos, Espagne (8125): Quantités de précipitations: 01.08.2020 22:00:00 - 07.08.2020 22:00:00 (CEST)
Date & Time tt [°C] td [°C] ff [km/h] ff [knt] fx [km/h] fx [knt] dd vv [km] sd [min] rr [mm]
07.08.2020 22:00:00 28,2 8,9 8 4 18 10 W 20 0 0,0
07.08.2020 21:00:00 30,7 9,6 9 5 20 11 W 20 57 0,0
07.08.2020 20:00:00 32,9 8,4 11 6 26 14 W 20 60 -
07.08.2020 19:00:00 33,8 8,4 14 8 34 19 W 20 60 0,0
07.08.2020 18:00:00 34,1 8,0 16 9 38 20 W 20 59 0,0
07.08.2020 17:00:00 34,6 8,4 11 6 39 21 SW 20 56 0,0
07.08.2020 16:00:00 34,0 8,5 16 9 36 20 WSW 20 53 0,0
07.08.2020 15:00:00 33,0 8,4 17 9 32 18 SSW 20 52 0,0
07.08.2020 14:00:00 32,9 9,0 14 8 35 19 WSW 20 60 -
07.08.2020 13:00:00 32,3 10,3 11 6 29 15 SSW 20 60 0,0
07.08.2020 12:00:00 31,2 12,1 4 2 14 8 SE 20 60 0,0
07.08.2020 11:00:00 27,7 11,7 3 2 10 5 ENE 20 60 0,0
07.08.2020 10:00:00 23,6 13,2 2 1 6 3 NNW 20 59 0,0
07.08.2020 09:00:00 18,2 12,2 3 1 4 2 N 20 47 0,0
07.08.2020 08:00:00 14,7 10,9 0 0 4 2 N 20 0 -
07.08.2020 07:00:00 14,9 10,5 3 1 4 2 SSE 20 0 0,0
07.08.2020 06:00:00 16,0 11,0 1 1 5 3 ENE 20 0 0,0
07.08.2020 05:00:00 16,8 11,3 4 2 9 5 SSE 20 0 0,0
07.08.2020 04:00:00 17,8 10,6 3 2 5 3 N 20 0 0,0
07.08.2020 03:00:00 19,1 10,4 3 2 8 4 S 20 0 0,0
07.08.2020 02:00:00 20,7 9,9 4 2 10 5 SSW 20 0 -
07.08.2020 01:00:00 22,0 8,1 3 2 14 7 WSW 20 0 0,0
07.08.2020 00:00:00 22,1 8,5 6 4 10 5 S 20 0 0,0
06.08.2020 23:00:00 24,5 6,7 6 4 11 6 SSW 20 0 0,0
06.08.2020 22:00:00 28,2 7,4 7 4 17 9 SSW 20 0 0,0
06.08.2020 21:00:00 32,0 4,6 9 5 34 19 SSW 20 60 0,0
06.08.2020 20:00:00 34,5 3,0 13 7 51 28 S 20 52 -
06.08.2020 19:00:00 36,1 4,3 11 6 29 16 S 20 57 0,0
06.08.2020 18:00:00 36,0 5,3 10 6 28 15 W 20 52 0,0
06.08.2020 17:00:00 35,0 4,5 11 6 36 20 SSE 20 32 0,0
06.08.2020 16:00:00 35,5 3,9 10 5 32 17 SE 20 45 0,0
06.08.2020 15:00:00 34,4 6,7 5 3 16 9 WSW 20 32 0,0
06.08.2020 14:00:00 33,8 3,6 8 5 19 11 E 20 58 -
06.08.2020 13:00:00 32,2 4,8 8 4 21 12 ENE 20 57 0,0
06.08.2020 12:00:00 29,3 5,3 6 3 20 11 ENE 20 57 0,0
06.08.2020 11:00:00 25,4 6,1 7 4 16 9 E 20 51 0,0
06.08.2020 10:00:00 22,7 8,0 4 2 11 6 E 20 60 0,0
06.08.2020 09:00:00 16,6 9,6 3 1 5 3 NNE 20 57 0,0
06.08.2020 08:00:00 11,2 7,1 1 1 4 2 S 20 0 -
06.08.2020 07:00:00 11,5 7,0 0 0 5 3 N 20 0 0,0
06.08.2020 06:00:00 12,6 7,4 3 1 6 3 NNE 20 0 0,0
06.08.2020 05:00:00 12,6 7,7 3 1 5 3 SSW 20 0 0,0
06.08.2020 04:00:00 13,4 7,6 4 2 7 4 S 20 0 0,0
06.08.2020 03:00:00 15,1 7,6 4 2 7 4 NW 20 0 0,0
06.08.2020 02:00:00 16,2 7,4 2 1 8 5 SSE 20 0 -
06.08.2020 01:00:00 17,1 7,4 5 3 8 4 S 20 0 0,0
06.08.2020 00:00:00 20,3 7,0 1 1 10 5 E 20 0 0,0
05.08.2020 23:00:00 23,6 5,9 2 1 9 5 NNW 20 0 0,0
05.08.2020 22:00:00 26,2 6,2 5 3 14 7 S 20 10 0,0
05.08.2020 21:00:00 31,4 5,0 11 6 23 12 E 20 60 0,0
05.08.2020 20:00:00 34,5 3,0 4 2 11 6 S 20 60 -
05.08.2020 19:00:00 35,1 3,6 4 2 21 11 NNW 20 60 0,0
05.08.2020 18:00:00 34,9 3,4 8 5 18 10 NNW 20 60 0,0
05.08.2020 17:00:00 33,9 3,6 8 4 19 10 ESE 20 60 0,0
05.08.2020 16:00:00 32,9 3,8 5 3 23 13 ESE 20 60 0,0
05.08.2020 15:00:00 31,9 5,5 8 4 21 11 S 20 60 0,0
05.08.2020 14:00:00 30,4 6,2 7 4 21 11 WSW 20 60 -
05.08.2020 13:00:00 29,3 6,1 5 3 16 8 SSE 20 60 0,0
05.08.2020 12:00:00 27,0 8,9 4 2 10 5 ENE 20 60 0,0
05.08.2020 11:00:00 23,1 9,8 3 2 7 4 W 20 60 0,0
05.08.2020 10:00:00 19,3 9,8 1 1 8 4 W 20 60 0,0
05.08.2020 09:00:00 15,0 8,7 3 2 5 3 NNE 20 57 0,0
05.08.2020 08:00:00 8,8 5,8 1 1 4 2 SE 20 0 -
05.08.2020 07:00:00 9,4 5,9 1 1 4 2 SE 20 0 0,0
05.08.2020 06:00:00 10,2 6,4 2 1 5 3 WNW 20 0 0,0
05.08.2020 05:00:00 9,8 5,5 3 2 6 4 SSE 20 0 0,0
05.08.2020 04:00:00 10,6 5,6 2 1 4 2 S 20 0 0,0
05.08.2020 03:00:00 11,4 5,5 3 1 5 3 SSE 20 0 0,0
05.08.2020 02:00:00 13,1 5,3 3 2 6 3 S 20 0 -
05.08.2020 01:00:00 14,4 5,0 2 1 6 4 SSW 20 0 0,0
05.08.2020 00:00:00 16,7 4,6 1 1 4 2 SSE 20 0 0,0
04.08.2020 23:00:00 19,9 3,9 1 1 6 3 N 20 0 0,0
04.08.2020 22:00:00 23,0 4,5 2 1 15 8 SSW 20 12 0,0
04.08.2020 21:00:00 26,9 3,9 8 4 16 9 SE 20 60 0,0
04.08.2020 20:00:00 29,2 3,9 7 4 16 9 ESE 20 60 -
04.08.2020 19:00:00 30,1 5,3 3 2 15 8 ENE 20 60 0,0
04.08.2020 18:00:00 30,1 3,2 6 4 15 8 E 20 60 0,0
04.08.2020 17:00:00 29,9 3,8 6 3 26 14 NNW 20 60 0,0
04.08.2020 16:00:00 28,6 4,1 6 4 19 10 NNE 20 60 0,0
04.08.2020 15:00:00 27,8 6,5 8 4 18 10 ESE 20 60 0,0
04.08.2020 14:00:00 26,0 8,0 7 4 17 9 NE 20 60 -
04.08.2020 13:00:00 24,0 8,0 9 5 - - ENE 20 - -
04.08.2020 12:00:00 22,0 8,1 8 4 21 11 E 5 60 0,0
04.08.2020 11:00:00 19,8 7,6 11 6 26 14 E 20 60 0,0
04.08.2020 10:00:00 17,6 7,6 8 4 17 9 ENE 20 60 0,0
04.08.2020 09:00:00 14,5 8,4 2 1 5 3 ENE 20 60 0,0
04.08.2020 08:00:00 9,9 6,8 0 0 61 33 N 20 6 -
04.08.2020 07:00:00 9,9 6,5 2 1 3 2 S 20 0 0,0
04.08.2020 06:00:00 11,7 7,4 0 0 4 2 N 20 0 0,0
04.08.2020 05:00:00 12,8 7,8 3 1 6 3 N 20 0 0,0
04.08.2020 04:00:00 14,3 8,3 3 1 16 9 NE 20 0 0,0
04.08.2020 03:00:00 15,7 8,7 7 4 17 9 ENE 20 0 0,0
04.08.2020 02:00:00 16,3 9,7 5 3 18 10 NE 20 0 -
04.08.2020 01:00:00 17,6 9,9 2 1 13 7 E 20 0 0,0
04.08.2020 00:00:00 17,3 9,4 4 2 10 5 E 20 0 0,0
03.08.2020 23:00:00 19,5 9,4 3 1 7 4 SE 20 0 0,0
03.08.2020 22:00:00 23,0 8,7 5 3 22 12 N 20 5 0,0
03.08.2020 21:00:00 27,4 8,3 10 6 24 13 NNE 20 42 0,0
03.08.2020 20:00:00 29,2 7,1 6 3 21 11 WNW 20 60 -
03.08.2020 19:00:00 30,2 6,1 7 4 16 9 NW 20 43 0,0
03.08.2020 18:00:00 29,6 6,8 9 5 24 13 W 20 55 0,0
03.08.2020 17:00:00 27,7 7,0 6 3 27 15 SE 20 46 0,0
03.08.2020 16:00:00 28,7 7,8 9 5 21 11 NW 20 60 0,0
03.08.2020 15:00:00 27,7 7,6 9 5 20 11 W 20 59 0,0
03.08.2020 14:00:00 26,9 7,8 7 4 16 9 NE 20 60 -
03.08.2020 13:00:00 25,1 7,7 6 3 14 7 E 20 60 0,0
03.08.2020 12:00:00 23,1 8,8 4 2 12 7 ENE 20 60 0,0
03.08.2020 11:00:00 20,0 9,3 4 2 13 7 SE 20 60 0,0
03.08.2020 10:00:00 17,5 9,2 4 2 9 5 NNE 20 60 0,0
03.08.2020 09:00:00 13,2 8,9 3 2 5 3 ESE 20 39 0,0
03.08.2020 08:00:00 10,6 7,4 4 2 5 3 SSE 20 0 -
03.08.2020 07:00:00 10,3 7,4 0 0 5 3 N 20 0 0,0
03.08.2020 06:00:00 11,0 7,6 2 1 4 2 S 20 0 0,0
03.08.2020 05:00:00 12,6 8,1 2 1 6 3 SSW 20 0 0,0
03.08.2020 04:00:00 14,3 8,5 2 1 8 4 SSW 20 0 0,0
03.08.2020 03:00:00 15,4 8,7 4 2 16 9 E 20 0 0,0
03.08.2020 02:00:00 16,6 8,5 6 3 22 12 E 20 0 -
03.08.2020 01:00:00 18,2 9,3 14 8 26 14 ENE 20 0 0,0
03.08.2020 00:00:00 19,9 9,2 8 4 21 11 E 20 0 0,0
02.08.2020 23:00:00 20,9 8,1 6 4 10 6 SE 20 0 0,0
02.08.2020 22:00:00 23,1 7,3 5 3 20 11 E 20 0 0,0
02.08.2020 21:00:00 25,2 8,3 9 5 23 12 NE 20 8 0,0
02.08.2020 20:00:00 28,5 8,3 2 1 12 7 N 20 46 -
02.08.2020 19:00:00 29,8 6,4 4 2 18 10 ENE 20 60 0,0
02.08.2020 18:00:00 28,9 6,8 8 5 18 10 NNW 20 43 0,0
02.08.2020 17:00:00 29,2 5,9 8 4 21 11 NNW 20 48 0,0
02.08.2020 16:00:00 27,9 7,7 6 3 17 9 E 20 41 0,0
02.08.2020 15:00:00 27,3 8,3 8 4 20 11 NE 20 60 0,0
02.08.2020 14:00:00 26,6 8,5 4 2 18 10 WNW 20 57 -
02.08.2020 13:00:00 25,2 9,4 9 5 25 14 N 20 59 0,0
02.08.2020 12:00:00 23,1 10,2 9 5 24 13 E 20 60 0,0
02.08.2020 11:00:00 21,1 10,5 12 6 28 15 ENE 20 60 0,0
02.08.2020 10:00:00 18,9 10,8 4 2 10 5 NE 20 58 0,0
02.08.2020 09:00:00 16,7 10,5 3 1 8 4 E 20 60 0,0
02.08.2020 08:00:00 10,7 8,9 5 3 5 3 S 20 8 -
02.08.2020 07:00:00 10,1 7,7 4 2 6 3 S 20 0 0,0
02.08.2020 06:00:00 11,6 8,8 4 2 6 3 SSW 20 0 0,0
02.08.2020 05:00:00 13,0 10,0 1 1 8 5 E 20 0 0,0
02.08.2020 04:00:00 14,1 10,6 2 1 5 3 N 20 0 0,0
02.08.2020 03:00:00 15,1 11,1 3 2 7 4 N 20 0 0,0
02.08.2020 02:00:00 16,6 11,3 3 2 10 5 NNE 20 0 -
02.08.2020 01:00:00 17,6 11,7 1 1 9 5 SSE 20 0 0,0
02.08.2020 00:00:00 17,8 8,9 1 1 20 11 W 20 0 0,0
01.08.2020 23:00:00 19,4 9,3 4 2 15 8 S 20 0 0,0
01.08.2020 22:00:00 23,1 8,4 9 5 18 10 W 20 8 0,0

tt = Température de l'air
td = dewpoint
ff = Vitesse du vent
fx = gusts
dd = Direction du vent
vv = visibility
sd = Ensoleillement
rr = Quantités de précipitations

stations d'obs. à proximité